Time;durP1;ratioP1;P1;durP2;ratioP2;P2;SDS_P1;SDS_P2;PMS_P1;PMS_P2;Temp;Humidity;BMP_temperature;BMP_pressure;BME280_temperature;BME280_humidity;BME280_pressure;Samples;Min_cycle;Max_cycle;Signal;HPM_P1;HPM_P2
2022/04/21 00:00:44;;;;;;;22.87;12.93;;;;;;;0.26;76.24;95344.24;1795515;80;21471;-70
2022/04/21 00:03:11;;;;;;;25.67;13.53;;;;;;;0.29;75.66;95337.80;1795026;80;21512;-69
2022/04/21 00:05:37;;;;;;;26.20;13.13;;;;;;;0.35;75.97;95343.50;1795052;80;21086;-69
2022/04/21 00:08:04;;;;;;;22.47;13.93;;;;;;;0.45;76.82;95341.51;1795420;80;20994;-69
2022/04/21 00:10:32;;;;;;;23.70;14.93;;;;;;;0.64;76.81;95347.88;1795394;80;21496;-69
2022/04/21 00:12:58;;;;;;;23.97;14.07;;;;;;;0.70;76.07;95341.91;1795161;80;21058;-69
2022/04/21 00:15:26;;;;;;;25.30;14.73;;;;;;;0.71;75.68;95343.67;1795547;80;20983;-69
2022/04/21 00:17:53;;;;;;;23.53;12.23;;;;;;;0.72;75.81;95349.30;1795388;80;21042;-69
2022/04/21 00:20:20;;;;;;;23.60;15.23;;;;;;;0.72;76.27;95348.00;1795492;80;21011;-69
2022/04/21 00:25:32;;;;;;;22.20;14.50;;;;;;;0.81;76.04;95355.94;1787192;80;20987;-70
2022/04/21 00:27:58;;;;;;;20.60;13.07;;;;;;;0.78;75.53;95353.27;1787356;80;20999;-69
2022/04/21 00:30:26;;;;;;;23.67;14.50;;;;;;;0.75;75.72;95363.19;1786865;80;20991;-70
2022/04/21 00:32:53;;;;;;;21.53;14.03;;;;;;;0.72;75.96;95353.19;1787163;80;20995;-70
2022/04/21 00:35:19;;;;;;;21.77;13.57;;;;;;;0.68;76.08;95360.07;1786766;80;21023;-70
2022/04/21 00:37:53;;;;;;;20.37;11.97;;;;;;;0.67;75.76;95360.91;1787193;80;21003;-70
2022/04/21 00:40:21;;;;;;;;;;;;;;;0.70;77.45;95361.38;1789758;80;21007;-70
2022/04/21 00:42:48;;;;;;;16.27;11.73;;;;;;;0.76;77.40;95366.68;1756067;81;20118;-70
2022/04/21 00:45:16;;;;;;;15.00;10.33;;;;;;;0.79;76.56;95362.39;1755669;82;21493;-70
2022/04/21 00:47:45;;;;;;;14.83;11.60;;;;;;;0.80;76.32;95360.23;1787068;80;20973;-70
2022/04/21 00:50:19;;;;;;;17.37;10.70;;;;;;;0.83;76.46;95362.00;1786932;80;21005;-69
2022/04/21 00:52:46;;;;;;;12.20;9.57;;;;;;;0.89;76.55;95356.05;1787263;80;20974;-69
2022/04/21 00:55:14;;;;;;;11.47;8.70;;;;;;;0.93;76.67;95369.08;1787265;80;20993;-69
2022/04/21 00:57:43;;;;;;;12.17;9.27;;;;;;;1.00;77.67;95363.12;1787351;80;20989;-69
2022/04/21 01:00:12;;;;;;;12.37;10.40;;;;;;;1.08;77.96;95365.83;1787266;80;20990;-69
2022/04/21 01:02:46;;;;;;;17.87;10.73;;;;;;;1.15;77.12;95359.00;1787068;80;21024;-69
2022/04/21 01:05:25;;;;;;;13.03;9.67;;;;;;;1.23;76.79;95359.54;1786770;80;21456;-69
2022/04/21 01:07:48;;;;;;;22.63;13.40;;;;;;;1.34;76.63;95362.74;1786385;80;20962;-69
2022/04/21 01:10:15;;;;;;;21.90;14.37;;;;;;;1.42;77.01;95361.11;1787113;80;21483;-69
2022/04/21 01:12:43;;;;;;;21.13;13.67;;;;;;;1.51;76.92;95356.90;1786763;80;21108;-70
2022/04/21 01:15:11;;;;;;;20.10;12.03;;;;;;;1.65;76.88;95357.05;1786895;80;21089;-70
2022/04/21 01:17:39;;;;;;;17.43;12.27;;;;;;;1.78;76.72;95357.20;1787149;80;21029;-69
2022/04/21 01:20:12;;;;;;;25.93;16.87;;;;;;;1.86;76.07;95356.84;1787019;80;21033;-70
2022/04/21 01:22:36;;;;;;;38.57;23.70;;;;;;;1.91;75.74;95352.56;1785738;80;21061;-70
2022/04/21 01:25:05;;;;;;;23.57;16.57;;;;;;;1.90;75.70;95357.34;1787344;80;20970;-70
2022/04/21 01:27:33;;;;;;;18.30;10.67;;;;;;;1.92;75.52;95360.83;1786976;80;21024;-70
2022/04/21 01:30:02;;;;;;;20.17;12.67;;;;;;;1.78;75.12;95365.86;1780096;80;20969;-70
2022/04/21 01:32:31;;;;;;;18.23;12.73;;;;;;;1.76;75.19;95361.50;1787185;80;21518;-69
2022/04/21 01:34:58;;;;;;;19.40;11.63;;;;;;;1.73;75.07;95374.05;1786946;80;21029;-69
2022/04/21 01:42:55;;;;;;;20.87;14.27;;;;;;;1.62;75.52;95364.82;1787208;80;20968;-69
2022/04/21 01:45:21;;;;;;;23.40;15.50;;;;;;;1.62;75.59;95362.66;1787120;80;21468;-69
2022/04/21 01:47:48;;;;;;;19.47;11.83;;;;;;;1.59;75.24;95360.89;1787022;80;20989;-69
2022/04/21 01:50:15;;;;;;;26.20;13.77;;;;;;;1.61;75.54;95360.45;1787098;80;21009;-69
2022/04/21 01:52:41;;;;;;;18.33;11.83;;;;;;;1.65;75.41;95355.75;1787044;80;21492;-69
2022/04/21 01:55:09;;;;;;;19.00;13.00;;;;;;;1.73;75.26;95355.40;1786543;80;21002;-70
2022/04/21 01:57:35;;;;;;;18.33;11.90;;;;;;;1.81;75.58;95352.88;1749259;80;21454;-70
2022/04/21 02:00:04;;;;;;;16.30;12.13;;;;;;;1.75;75.25;95358.03;1786891;80;21049;-70
2022/04/21 02:02:32;;;;;;;20.23;12.67;;;;;;;1.75;75.17;95358.47;1787099;80;20981;-70
2022/04/21 02:05:01;;;;;;;17.20;11.43;;;;;;;1.75;75.57;95358.47;1786878;80;20974;-70
2022/04/21 02:07:28;;;;;;;21.77;12.83;;;;;;;1.79;75.15;95353.72;1786987;80;21036;-70
2022/04/21 02:09:55;;;;;;;15.53;11.17;;;;;;;1.82;74.96;95348.14;1786891;80;20992;-70
2022/04/21 02:12:23;;;;;;;16.70;11.00;;;;;;;1.84;75.13;95350.74;1787152;80;20974;-69
2022/04/21 02:14:51;;;;;;;14.10;10.37;;;;;;;1.90;74.99;95349.09;1787210;80;21443;-70
2022/04/21 02:17:19;;;;;;;15.57;11.37;;;;;;;1.94;74.81;95344.78;1787211;80;21021;-69
2022/04/21 02:19:47;;;;;;;15.90;10.73;;;;;;;2.02;74.84;95348.80;1786969;80;21013;-69
2022/04/21 02:22:13;;;;;;;12.30;9.80;;;;;;;2.09;74.71;95349.27;1788047;80;21053;-69
2022/04/21 02:24:40;;;;;;;14.97;10.33;;;;;;;2.03;74.19;95347.48;1801093;80;20997;-69
2022/04/21 02:27:07;;;;;;;17.33;10.83;;;;;;;1.98;74.08;95352.21;1801202;80;21001;-68
2022/04/21 02:29:33;;;;;;;18.23;11.77;;;;;;;1.87;74.12;95346.47;1800717;80;21052;-69
2022/04/21 02:32:01;;;;;;;22.93;13.03;;;;;;;1.75;74.42;95352.83;1801116;80;21028;-69
2022/04/21 02:34:29;;;;;;;20.93;12.37;;;;;;;1.62;74.77;95351.82;1800862;80;21084;-69
2022/04/21 02:36:57;;;;;;;22.33;12.57;;;;;;;1.57;74.87;95355.23;1800843;80;20965;-69
2022/04/21 02:39:27;;;;;;;15.43;11.30;;;;;;;1.47;75.13;95351.20;1801200;80;20996;-69
2022/04/21 02:41:53;;;;;;;15.10;10.43;;;;;;;1.42;74.84;95352.88;1800969;80;21506;-69
2022/04/21 02:44:20;;;;;;;15.00;11.47;;;;;;;1.37;74.74;95348.05;1801117;80;21005;-69
2022/04/21 02:46:47;;;;;;;15.87;10.53;;;;;;;1.32;74.69;95360.54;1801197;80;20965;-69
2022/04/21 02:49:15;;;;;;;20.03;11.33;;;;;;;1.21;75.10;95353.48;1801207;80;21036;-69
2022/04/21 02:51:42;;;;;;;13.37;10.67;;;;;;;1.13;75.49;95356.80;1800863;80;20992;-69
2022/04/21 02:59:41;;;;;;;72.80;34.33;;;;;;;0.86;76.29;95352.98;1801192;80;20992;-69
2022/04/21 03:02:08;;;;;;;78.90;34.73;;;;;;;0.82;76.37;95351.18;1801394;80;21001;-69
2022/04/21 03:04:34;;;;;;;64.97;31.50;;;;;;;0.86;76.16;95349.09;1801159;80;21019;-69
2022/04/21 03:07:00;;;;;;;50.77;26.40;;;;;;;0.81;76.38;95354.64;1801064;80;21466;-69
2022/04/21 03:09:27;;;;;;;28.37;17.10;;;;;;;0.73;76.47;95355.83;1801377;80;21024;-69
2022/04/21 03:11:53;;;;;;;37.27;18.27;;;;;;;0.66;76.94;95352.68;1800976;80;20958;-69
2022/04/21 03:14:19;;;;;;;20.90;13.30;;;;;;;0.60;77.14;95356.46;1801396;80;21033;-69
2022/04/21 03:16:46;;;;;;;22.53;14.10;;;;;;;0.59;76.96;95354.73;1801191;80;20977;-69
2022/04/21 03:19:13;;;;;;;20.37;13.40;;;;;;;0.59;77.32;95353.43;1800865;80;20985;-69
2022/04/21 03:24:24;;;;;;;22.00;14.37;;;;;;;0.55;77.39;95349.89;1793888;80;21037;-69
2022/04/21 03:26:53;;;;;;;22.83;14.00;;;;;;;0.56;77.46;95349.06;1792373;80;21112;-69
2022/04/21 03:29:21;;;;;;;21.27;13.90;;;;;;;0.54;77.86;95346.86;1792778;80;21104;-69
2022/04/21 03:31:51;;;;;;;22.57;13.77;;;;;;;0.54;78.33;95342.09;1792820;80;21462;-69
2022/04/21 03:34:20;;;;;;;18.00;11.83;;;;;;;0.60;78.07;95352.13;1792673;80;21013;-69
2022/04/21 03:36:48;;;;;;;18.50;12.13;;;;;;;0.67;77.82;95348.35;1792689;80;20977;-70
2022/04/21 03:39:17;;;;;;;16.23;10.87;;;;;;;0.70;77.45;95340.60;1792232;80;21323;-70
2022/04/21 03:41:44;;;;;;;19.63;11.63;;;;;;;0.78;77.23;95350.27;1792714;80;21483;-69
2022/04/21 03:44:11;;;;;;;58.50;30.13;;;;;;;0.68;77.98;95347.48;1792536;80;21032;-69
2022/04/21 03:46:38;;;;;;;41.00;21.43;;;;;;;0.71;77.42;95345.83;1792661;80;20989;-69
2022/04/21 03:49:06;;;;;;;58.77;29.47;;;;;;;0.79;77.45;95351.14;1792661;80;21005;-69
2022/04/21 03:51:34;;;;;;;58.53;30.30;;;;;;;0.78;77.50;95351.57;1792660;80;20973;-69
2022/04/21 03:54:01;;;;;;;82.30;39.30;;;;;;;0.78;77.34;95352.87;1792655;80;21530;-69
2022/04/21 03:56:28;;;;;;;44.97;25.23;;;;;;;0.80;77.37;95351.58;1792640;80;21522;-69
2022/04/21 03:58:55;;;;;;;43.23;24.00;;;;;;;0.80;77.63;95348.98;1792727;80;21049;-69
2022/04/21 04:01:22;;;;;;;33.50;21.67;;;;;;;0.72;77.76;95344.97;1792568;80;20965;-69
2022/04/21 04:03:49;;;;;;;38.63;23.70;;;;;;;0.75;77.79;95343.70;1792730;80;20998;-69
2022/04/21 04:11:46;;;;;;;26.77;19.67;;;;;;;0.89;77.64;95337.44;1792635;80;21017;-69
2022/04/21 04:14:12;;;;;;;38.23;21.90;;;;;;;0.98;77.83;95340.58;1792519;80;20993;-69
2022/04/21 04:16:39;;;;;;;21.57;16.10;;;;;;;1.03;77.48;95341.11;1792861;80;20989;-69
2022/04/21 04:19:09;;;;;;;31.63;20.67;;;;;;;1.08;77.63;95344.64;1792608;80;20974;-70
2022/04/21 04:21:35;;;;;;;27.30;18.67;;;;;;;1.15;77.54;95343.41;1792370;80;20981;-70
2022/04/21 04:24:03;;;;;;;37.80;23.40;;;;;;;1.22;77.42;95338.31;1792625;80;21523;-70
2022/04/21 04:26:34;;;;;;;41.10;22.90;;;;;;;1.27;77.11;95330.59;1792618;80;21036;-70
2022/04/21 04:29:05;;;;;;;56.33;29.60;;;;;;;1.23;77.41;95327.05;1792703;80;21040;-70
2022/04/21 04:31:33;;;;;;;42.07;23.83;;;;;;;1.29;77.43;95327.16;1792637;80;20962;-69
2022/04/21 04:34:00;;;;;;;40.73;24.27;;;;;;;1.36;77.20;95327.22;1792665;80;21021;-69
2022/04/21 04:36:28;;;;;;;72.47;39.57;;;;;;;1.48;77.40;95324.77;1792550;80;21065;-68
2022/04/21 04:38:55;;;;;;;69.00;38.30;;;;;;;1.53;76.70;95320.49;1792728;80;21036;-69
2022/04/21 04:44:06;;;;;;;49.80;32.70;;;;;;;1.61;76.91;95323.19;1792524;80;21475;-69
2022/04/21 04:46:35;;;;;;;50.73;32.77;;;;;;;1.70;76.63;95318.96;1792574;80;21069;-69
2022/04/21 04:49:10;;;;;;;40.73;28.87;;;;;;;1.80;76.36;95324.27;1792400;80;20986;-69
2022/04/21 04:51:41;;;;;;;37.30;26.23;;;;;;;1.86;76.33;95324.33;1792697;80;21538;-68
2022/04/21 04:54:10;;;;;;;40.13;25.43;;;;;;;1.91;76.33;95321.34;1792631;80;21524;-69
2022/04/21 04:56:39;;;;;;;76.27;41.23;;;;;;;2.01;76.41;95322.31;1792476;80;21508;-69
2022/04/21 04:59:06;;;;;;;87.63;48.10;;;;;;;2.13;76.38;95315.48;1792679;80;21519;-69
2022/04/21 05:01:40;;;;;;;131.30;61.00;;;;;;;2.25;76.29;95304.33;1792634;80;20950;-69
2022/04/21 05:04:11;;;;;;;132.13;64.83;;;;;;;2.40;76.02;95310.09;1791984;80;21537;-70
2022/04/21 05:06:45;;;;;;;106.75;56.75;;;;;;;2.52;76.17;95303.69;1792937;80;20989;-68
2022/04/21 05:09:14;;;;;;;;;;;;;;;2.63;75.71;95305.06;1795295;80;21005;-70
2022/04/21 05:11:44;;;;;;;86.27;59.80;;;;;;;2.75;75.50;95308.20;1791855;80;20096;-70
2022/04/21 05:14:10;;;;;;;94.30;62.20;;;;;;;2.78;74.95;95303.00;1792687;80;21008;-70
2022/04/21 05:16:39;;;;;;;51.77;32.90;;;;;;;2.83;74.72;95307.81;1792559;80;21041;-69
2022/04/21 05:19:09;;;;;;;43.10;30.83;;;;;;;2.84;74.28;95305.63;1792494;80;21036;-69
2022/04/21 05:21:37;;;;;;;42.20;28.73;;;;;;;2.87;74.47;95305.64;1792496;80;20973;-70
2022/04/21 05:24:06;;;;;;;44.67;26.33;;;;;;;2.96;74.19;95307.02;1792405;80;21121;-69
2022/04/21 05:26:34;;;;;;;42.20;27.03;;;;;;;3.03;74.52;95300.11;1792527;80;21013;-69
2022/04/21 05:30:55;;;;;;;43.57;27.07;;;;;;;3.10;75.30;95303.61;1792801;80;21088;-69
2022/04/21 05:31:32;;;;;;;38.60;23.80;;;;;;;3.20;75.22;95304.09;1787271;80;21005;-69
2022/04/21 05:34:00;;;;;;;42.23;21.40;;;;;;;3.32;75.38;95301.98;1792574;80;21077;-69
2022/04/21 05:36:27;;;;;;;44.30;25.17;;;;;;;3.42;75.60;95305.94;1792615;80;21467;-69
2022/04/21 05:38:55;;;;;;;44.70;25.07;;;;;;;3.51;75.57;95303.81;1792353;80;21491;-69
2022/04/21 05:41:23;;;;;;;49.60;24.97;;;;;;;3.62;75.33;95302.11;1792613;80;20985;-69
2022/04/21 05:43:53;;;;;;;43.93;23.57;;;;;;;3.72;75.43;95303.02;1792683;80;20946;-69
2022/04/21 05:46:20;;;;;;;37.63;24.20;;;;;;;3.80;75.48;95305.20;1792373;80;21041;-69
2022/04/21 05:48:48;;;;;;;40.60;23.93;;;;;;;3.94;75.51;95309.61;1792728;80;20969;-70
2022/04/21 05:51:15;;;;;;;45.93;23.07;;;;;;;4.00;75.91;95307.00;1792642;80;21519;-69
2022/04/21 05:53:47;;;;;;;36.03;19.60;;;;;;;4.09;75.84;95308.33;1792364;80;21068;-69
2022/04/21 05:56:15;;;;;;;34.70;20.13;;;;;;;4.20;75.99;95296.59;1792425;80;20982;-69
2022/04/21 05:58:42;;;;;;;26.03;17.70;;;;;;;4.37;75.60;95296.61;1792792;80;21478;-70
2022/04/21 06:01:10;;;;;;;24.73;13.93;;;;;;;4.57;75.02;95299.23;1792656;80;21024;-69
2022/04/21 06:03:39;;;;;;;30.53;17.17;;;;;;;4.76;73.38;95294.41;1792697;80;21009;-69
2022/04/21 06:06:06;;;;;;;20.70;12.70;;;;;;;4.93;73.53;95294.39;1792506;80;21561;-69
2022/04/21 06:08:33;;;;;;;26.17;12.97;;;;;;;5.12;71.31;95302.64;1792429;80;21080;-69
2022/04/21 06:10:59;;;;;;;16.37;11.20;;;;;;;5.32;70.94;95300.42;1792732;80;21006;-69
2022/04/21 06:13:27;;;;;;;15.50;10.70;;;;;;;5.48;69.05;95303.85;1792959;80;20973;-69
2022/04/21 06:15:58;;;;;;;17.47;11.17;;;;;;;5.63;67.53;95296.80;1792838;80;20957;-69
2022/04/21 06:18:26;;;;;;;13.53;10.57;;;;;;;5.77;65.42;95301.99;1792862;80;21001;-69
2022/04/21 06:20:54;;;;;;;15.37;11.37;;;;;;;5.88;64.66;95297.14;1792720;80;20985;-69
2022/04/21 06:23:21;;;;;;;14.90;11.27;;;;;;;5.97;64.55;95290.14;1792151;80;21057;-69
2022/04/21 06:25:48;;;;;;;15.93;12.27;;;;;;;6.10;63.78;95293.55;1787187;80;21495;-69
2022/04/21 06:28:15;;;;;;;14.27;11.73;;;;;;;6.18;63.74;95296.13;1787097;80;20978;-69
2022/04/21 06:30:42;;;;;;;18.50;13.40;;;;;;;6.24;62.98;95294.31;1787160;80;21017;-69
2022/04/21 06:33:08;;;;;;;18.73;14.33;;;;;;;6.28;62.68;95304.35;1787302;80;21029;-69
2022/04/21 06:35:35;;;;;;;18.63;15.27;;;;;;;6.35;63.23;95302.12;1787267;80;20995;-69
2022/04/21 06:38:01;;;;;;;19.83;14.90;;;;;;;6.40;63.18;95304.69;1786922;80;20993;-69
2022/04/21 06:40:28;;;;;;;23.50;15.57;;;;;;;6.37;63.18;95305.58;1786919;80;21068;-69
2022/04/21 06:42:55;;;;;;;27.57;15.87;;;;;;;6.42;63.41;95298.55;1787191;80;21472;-70
2022/04/21 06:48:06;;;;;;;17.83;13.70;;;;;;;6.56;63.01;95306.33;1787528;80;20969;-69
2022/04/21 06:50:39;;;;;;;19.60;14.77;;;;;;;6.69;63.14;95303.16;1787038;80;21001;-69
2022/04/21 06:53:10;;;;;;;21.33;14.33;;;;;;;6.81;63.31;95305.69;1787416;80;21021;-69
2022/04/21 06:55:36;;;;;;;18.30;14.37;;;;;;;6.86;62.64;95306.52;1787336;80;21001;-69
2022/04/21 06:58:03;;;;;;;19.57;13.93;;;;;;;6.92;62.32;95294.64;1787267;80;21467;-69
2022/04/21 07:00:30;;;;;;;16.43;13.23;;;;;;;7.02;62.19;95301.98;1786896;80;21053;-69
2022/04/21 07:02:58;;;;;;;18.03;12.57;;;;;;;7.09;61.85;95308.06;1787083;80;20978;-69
2022/04/21 07:05:27;;;;;;;17.37;13.70;;;;;;;7.15;61.29;95304.91;1787313;80;21005;-69
2022/04/21 07:07:53;;;;;;;19.83;12.93;;;;;;;7.19;60.75;95304.45;1787051;80;21021;-69
2022/04/21 07:10:21;;;;;;;21.37;11.20;;;;;;;7.27;61.03;95307.86;1787118;80;20998;-69
2022/04/21 07:12:48;;;;;;;22.07;13.33;;;;;;;7.31;60.25;95312.66;1749431;80;20989;-69
2022/04/21 07:15:15;;;;;;;21.20;12.00;;;;;;;7.43;60.44;95306.38;1787250;80;20962;-69
2022/04/21 07:17:42;;;;;;;16.13;12.07;;;;;;;7.49;59.56;95303.70;1787135;80;20997;-69
2022/04/21 07:20:12;;;;;;;16.63;11.00;;;;;;;7.48;59.06;95303.27;1787317;80;21056;-69
2022/04/21 07:22:39;;;;;;;15.17;11.60;;;;;;;7.57;59.79;95298.78;1787155;80;20974;-69
2022/04/21 07:25:09;;;;;;;11.10;9.33;;;;;;;7.76;58.62;95295.92;1796424;80;20977;-69
2022/04/21 07:27:37;;;;;;;13.70;10.50;;;;;;;7.97;58.42;95290.86;1801125;80;20957;-69
2022/04/21 07:30:06;;;;;;;13.70;10.47;;;;;;;8.01;58.43;95293.84;1801075;80;20988;-69
2022/04/21 07:32:33;;;;;;;13.53;10.30;;;;;;;8.23;59.11;95294.43;1801094;80;21523;-69
2022/04/21 07:35:00;;;;;;;15.47;10.50;;;;;;;8.53;56.90;95287.88;1801458;80;20993;-69
2022/04/21 07:37:27;;;;;;;17.80;11.53;;;;;;;8.80;57.79;95287.03;1801082;80;21024;-69
2022/04/21 07:39:54;;;;;;;21.70;12.00;;;;;;;9.12;55.16;95279.00;1800940;80;21036;-69
2022/04/21 07:42:21;;;;;;;17.27;12.40;;;;;;;9.33;51.95;95288.30;1801182;80;21494;-69
2022/04/21 07:44:48;;;;;;;12.73;9.80;;;;;;;9.49;50.52;95291.05;1800875;80;21793;-69
2022/04/21 07:47:14;;;;;;;13.33;10.13;;;;;;;9.34;48.68;95300.55;1801059;80;21077;-69
2022/04/21 07:49:47;;;;;;;9.63;7.90;;;;;;;9.33;46.63;95302.78;1801145;80;20993;-69
2022/04/21 07:55:18;;;;;;;9.90;8.50;;;;;;;9.37;46.32;95301.34;1801270;80;21053;-69
2022/04/21 07:57:47;;;;;;;11.73;9.83;;;;;;;9.51;45.49;95293.20;1801161;80;21004;-69
2022/04/21 08:00:16;;;;;;;13.03;10.53;;;;;;;9.37;43.95;95292.13;1800941;80;21036;-69
2022/04/21 08:02:46;;;;;;;13.33;7.47;;;;;;;9.29;44.78;95295.36;1801099;80;21016;-69
2022/04/21 08:05:18;;;;;;;8.57;7.67;;;;;;;9.24;44.19;95299.39;1801131;80;21475;-69
2022/04/21 08:07:46;;;;;;;6.62;5.92;;;;;;;9.30;44.62;95293.17;1801229;80;20985;-69
2022/04/21 08:10:15;;;;;;;10.03;7.47;;;;;;;9.46;42.43;95298.55;1801130;80;21162;-69
2022/04/21 08:12:51;;;;;;;9.67;7.90;;;;;;;9.36;44.25;95294.81;1800909;80;21000;-69
2022/04/21 08:15:26;;;;;;;8.33;7.33;;;;;;;9.30;45.05;95305.87;1801059;80;21005;-69
2022/04/21 08:17:55;;;;;;;8.13;6.43;;;;;;;9.21;44.46;95302.54;1801034;80;21012;-69
2022/04/21 08:20:22;;;;;;;7.97;6.50;;;;;;;9.09;43.82;95311.52;1801164;80;21029;-69
2022/04/21 08:22:49;;;;;;;9.40;7.90;;;;;;;9.05;43.51;95302.81;1801283;80;21041;-69
2022/04/21 08:33:34;;;;;;;7.23;6.53;;;;;;;9.01;42.80;95308.16;1787179;80;21498;-69
2022/04/21 08:36:03;;;;;;;8.50;6.80;;;;;;;9.10;44.74;95307.55;1787066;80;20985;-68
2022/04/21 08:38:31;;;;;;;9.07;6.97;;;;;;;9.32;43.44;95303.20;1786951;80;20994;-68
2022/04/21 08:41:02;;;;;;;8.10;7.30;;;;;;;9.74;44.25;95299.33;1786994;80;20985;-69
2022/04/21 08:43:29;;;;;;;9.00;7.17;;;;;;;9.83;43.91;95303.11;1787194;80;21571;-69
2022/04/21 08:45:57;;;;;;;7.77;6.70;;;;;;;9.79;42.61;95310.65;1787197;80;21004;-69
2022/04/21 08:48:25;;;;;;;8.03;6.80;;;;;;;9.72;43.21;95311.66;1787032;80;21485;-69
2022/04/21 08:50:52;;;;;;;8.53;6.77;;;;;;;9.69;42.53;95312.59;1787113;80;21037;-69
2022/04/21 08:53:27;;;;;;;8.23;7.30;;;;;;;10.04;43.84;95307.52;1786733;80;21498;-69
2022/04/21 08:55:52;;;;;;;8.27;7.20;;;;;;;10.34;43.54;95302.92;1785557;80;21037;-70
2022/04/21 08:58:20;;;;;;;8.70;7.23;;;;;;;10.36;42.17;95299.80;1749627;80;20993;-69
2022/04/21 09:00:47;;;;;;;8.77;6.90;;;;;;;10.28;42.12;95308.34;1787051;80;20994;-70
2022/04/21 09:03:15;;;;;;;9.00;6.60;;;;;;;10.25;42.76;95302.22;1786949;80;20989;-70
2022/04/21 09:05:44;;;;;;;7.77;6.57;;;;;;;10.14;41.83;95309.05;1787234;80;20966;-70
2022/04/21 09:08:26;;;;;;;8.27;7.07;;;;;;;10.06;42.39;95299.99;1787116;80;21008;-68
2022/04/21 09:11:11;;;;;;;8.13;7.33;;;;;;;9.97;42.68;95306.30;1787199;80;20974;-69
2022/04/21 09:13:40;;;;;;;9.27;6.77;;;;;;;9.90;42.81;95310.42;1787064;80;21005;-69
2022/04/21 09:16:09;;;;;;;8.77;7.47;;;;;;;10.44;42.57;95305.36;1786845;80;21017;-69
2022/04/21 09:18:42;;;;;;;6.43;5.47;;;;;;;10.85;42.84;95295.14;1779842;80;21037;-69
2022/04/21 09:21:14;;;;;;;8.07;6.20;;;;;;;10.64;39.09;95299.17;1787092;80;21008;-69
2022/04/21 09:23:44;;;;;;;7.20;6.50;;;;;;;10.43;39.88;95307.11;1786831;80;21021;-68
2022/04/21 09:26:20;;;;;;;7.97;6.77;;;;;;;10.39;41.58;95302.37;1799230;80;21506;-69
2022/04/21 09:28:56;;;;;;;8.27;6.87;;;;;;;10.28;41.44;95310.09;1800996;80;21039;-69
2022/04/21 09:31:26;;;;;;;9.03;6.50;;;;;;;10.19;41.49;95312.00;1801035;80;20981;-69
2022/04/21 09:33:55;;;;;;;6.63;5.77;;;;;;;10.10;40.18;95317.91;1800991;80;21008;-69
2022/04/21 09:36:22;;;;;;;8.67;7.23;;;;;;;10.01;40.94;95312.86;1801095;80;21009;-69
2022/04/21 09:39:01;;;;;;;7.93;6.70;;;;;;;9.94;41.22;95318.70;1800599;80;21590;-69
2022/04/21 09:41:30;;;;;;;7.90;7.00;;;;;;;9.87;41.61;95312.67;1801225;80;21778;-70
2022/04/21 09:46:59;;;;;;;7.80;5.90;;;;;;;9.67;42.30;95311.75;1800948;80;21562;-70
2022/04/21 09:49:38;;;;;;;8.83;6.90;;;;;;;9.56;41.30;95311.10;1801058;80;21523;-69
2022/04/21 09:52:06;;;;;;;7.53;6.83;;;;;;;9.45;42.13;95312.63;1800927;80;21447;-69
2022/04/21 09:54:34;;;;;;;8.70;7.73;;;;;;;9.45;42.62;95319.22;1800824;80;21475;-69
2022/04/21 09:57:01;;;;;;;7.30;5.97;;;;;;;9.51;42.62;95312.50;1801502;80;20993;-69
2022/04/21 09:59:29;;;;;;;8.47;7.43;;;;;;;9.67;42.86;95311.75;1800732;80;21005;-69
2022/04/21 10:01:56;;;;;;;16.90;10.90;;;;;;;9.75;42.56;95307.64;1801310;80;21016;-69
2022/04/21 10:04:24;;;;;;;9.33;7.80;;;;;;;9.83;42.92;95313.66;1800651;80;21052;-68
2022/04/21 10:06:51;;;;;;;8.90;7.53;;;;;;;9.90;43.35;95302.09;1800987;80;20976;-68
2022/04/21 10:09:18;;;;;;;7.77;6.77;;;;;;;10.00;42.07;95309.78;1800837;80;21487;-68
2022/04/21 10:11:44;;;;;;;7.50;6.70;;;;;;;10.06;42.45;95309.22;1801168;80;21024;-69
2022/04/21 10:14:13;;;;;;;9.37;6.67;;;;;;;10.12;43.36;95304.26;1801090;80;20977;-69
2022/04/21 10:16:42;;;;;;;7.10;6.13;;;;;;;9.99;41.91;95313.33;1800951;80;21010;-69
2022/04/21 10:19:11;;;;;;;6.70;5.63;;;;;;;10.02;41.79;95311.95;1800954;80;22376;-70
2022/04/21 10:21:56;;;;;;;6.73;5.73;;;;;;;10.00;40.63;95309.33;1801073;80;21001;-69
2022/04/21 10:24:28;;;;;;;6.83;6.20;;;;;;;10.04;39.66;95307.52;1800910;80;21000;-69
2022/04/21 10:26:55;;;;;;;9.27;6.47;;;;;;;10.17;40.60;95299.30;1798209;80;21017;-69
2022/04/21 10:29:26;;;;;;;7.00;6.30;;;;;;;10.41;40.25;95304.98;1801267;80;21024;-70
2022/04/21 10:32:03;;;;;;;7.03;5.00;;;;;;;10.69;41.56;95292.02;1800719;80;21009;-70
2022/04/21 10:34:38;;;;;;;7.80;6.50;;;;;;;10.95;39.55;95296.64;1767088;80;21008;-70
2022/04/21 10:37:22;;;;;;;7.00;5.90;;;;;;;11.05;41.12;95290.69;1801116;80;21488;-69
2022/04/21 10:40:10;;;;;;;9.33;7.53;;;;;;;11.06;39.36;95291.09;1800964;80;21059;-69
2022/04/21 10:42:55;;;;;;;8.33;7.10;;;;;;;11.05;41.41;95290.69;1801069;80;21522;-69
2022/04/21 10:45:27;;;;;;;7.63;6.00;;;;;;;10.93;39.32;95289.67;1801060;80;21065;-69
2022/04/21 10:48:14;;;;;;;9.73;8.70;;;;;;;10.81;39.78;95283.80;1801210;80;21024;-69
2022/04/21 10:50:45;;;;;;;8.10;7.30;;;;;;;10.73;40.74;95287.06;1801162;80;21467;-69
2022/04/21 10:59:07;;;;;;;9.20;8.30;;;;;;;10.42;41.50;95282.97;1801164;80;21494;-69
2022/04/21 11:01:33;;;;;;;7.97;6.97;;;;;;;10.41;41.75;95283.88;1801132;80;21007;-69
2022/04/21 11:04:19;;;;;;;15.47;10.70;;;;;;;10.45;41.59;95285.98;1801288;80;21008;-69
2022/04/21 11:06:54;;;;;;;10.97;9.17;;;;;;;10.40;41.70;95288.27;1801141;80;20984;-69
2022/04/21 11:09:39;;;;;;;9.40;8.20;;;;;;;10.42;41.56;95286.92;1800717;80;21005;-69
2022/04/21 11:12:08;;;;;;;9.77;7.23;;;;;;;10.43;41.53;95286.47;1801151;80;21458;-70
2022/04/21 11:14:38;;;;;;;10.27;8.30;;;;;;;10.45;41.95;95293.44;1801182;80;21478;-70
2022/04/21 11:17:06;;;;;;;6.77;5.87;;;;;;;10.50;42.38;95304.75;1801011;80;20996;-70
2022/04/21 11:19:45;;;;;;;6.90;6.20;;;;;;;10.42;41.32;95296.61;1801100;80;21013;-70
2022/04/21 11:22:10;;;;;;;7.10;6.17;;;;;;;10.27;41.54;95299.97;1800483;80;20994;-70
2022/04/21 11:24:59;;;;;;;8.90;7.23;;;;;;;10.26;41.85;95298.24;1800835;80;21084;-69
2022/04/21 11:27:26;;;;;;;8.43;6.97;;;;;;;10.26;42.30;95293.43;1800915;80;21052;-69
2022/04/21 11:30:04;;;;;;;7.77;7.00;;;;;;;10.34;42.21;95290.20;1800716;80;21065;-69
2022/04/21 11:32:31;;;;;;;7.83;7.13;;;;;;;10.44;41.33;95288.22;1796844;80;21005;-69
2022/04/21 11:35:03;;;;;;;8.63;7.17;;;;;;;10.54;41.30;95285.78;1801239;80;21458;-69
2022/04/21 11:37:58;;;;;;;9.30;7.77;;;;;;;10.78;41.03;95286.95;1801328;80;20992;-69
2022/04/21 11:40:40;;;;;;;7.60;6.80;;;;;;;11.03;41.65;95286.75;1800657;80;21045;-68
2022/04/21 11:43:17;;;;;;;8.57;6.43;;;;;;;11.32;42.66;95286.47;1801080;80;21518;-68
2022/04/21 11:46:00;;;;;;;8.05;6.10;;;;;;;11.39;40.27;95290.69;1801169;80;21008;-68
2022/04/21 11:48:30;;;;;;;8.35;6.92;;;;;;;11.15;38.23;95291.33;1800202;80;21032;-69
2022/04/21 11:50:57;;;;;;;7.72;6.97;;;;;;;11.09;39.30;95291.46;1800888;80;20984;-69
2022/04/21 11:53:33;;;;;;;13.90;10.65;;;;;;;11.08;41.14;95293.70;1801284;80;20941;-69
2022/04/21 11:55:58;;;;;;;10.32;9.23;;;;;;;11.09;41.82;95286.19;1801053;80;20997;-69
2022/04/21 11:58:39;;;;;;;10.88;8.30;;;;;;;11.03;43.58;95291.17;1800909;80;21001;-69
2022/04/21 12:06:51;;;;;;;7.80;7.05;;;;;;;11.52;42.41;95277.16;1801137;80;21032;-69
2022/04/21 12:09:23;;;;;;;8.60;6.70;;;;;;;12.01;39.59;95268.72;1801219;80;21036;-69
2022/04/21 12:11:59;;;;;;;8.78;7.87;;;;;;;12.03;38.90;95264.72;1796705;80;21064;-69
2022/04/21 12:14:28;;;;;;;8.85;7.97;;;;;;;12.10;40.52;95253.05;1801049;80;21440;-69
2022/04/21 12:16:59;;;;;;;10.15;8.03;;;;;;;12.19;39.88;95254.53;1800998;80;21048;-69
2022/04/21 12:19:39;;;;;;;8.50;7.70;;;;;;;12.15;39.33;95254.23;1800036;80;21020;-68
2022/04/21 12:22:18;;;;;;;7.45;6.75;;;;;;;12.03;39.00;95259.42;1801392;80;21053;-69
2022/04/21 12:24:49;;;;;;;8.08;6.72;;;;;;;12.12;39.55;95257.84;1801033;80;21008;-68
2022/04/21 12:27:26;;;;;;;8.65;6.37;;;;;;;12.24;40.20;95259.23;1800901;80;21055;-68
2022/04/21 12:29:58;;;;;;;7.33;6.62;;;;;;;12.51;38.44;95249.11;1801047;80;20993;-69
2022/04/21 12:32:28;;;;;;;10.18;6.83;;;;;;;12.69;38.41;95257.38;1801052;80;21478;-69